sensor_id;sensor_type;location;lat;lon;timestamp;P1;durP1;ratioP1;P2;durP2;ratioP2
57856;SDS011;43683;48.650;9.290;2023-05-10T00:01:53;4.28;;;2.00;;
57856;SDS011;43683;48.650;9.290;2023-05-10T00:04:19;3.83;;;2.10;;
57856;SDS011;43683;48.650;9.290;2023-05-10T00:06:45;3.22;;;2.22;;
57856;SDS011;43683;48.650;9.290;2023-05-10T00:09:11;3.42;;;1.75;;
57856;SDS011;43683;48.650;9.290;2023-05-10T00:11:36;2.95;;;1.88;;
57856;SDS011;43683;48.650;9.290;2023-05-10T00:14:02;3.35;;;1.80;;
57856;SDS011;43683;48.650;9.290;2023-05-10T00:16:27;3.35;;;2.20;;
57856;SDS011;43683;48.650;9.290;2023-05-10T00:18:53;3.63;;;1.83;;
57856;SDS011;43683;48.650;9.290;2023-05-10T00:21:18;3.78;;;1.83;;
57856;SDS011;43683;48.650;9.290;2023-05-10T00:23:44;4.10;;;1.80;;
57856;SDS011;43683;48.650;9.290;2023-05-10T00:26:10;3.42;;;1.73;;
57856;SDS011;43683;48.650;9.290;2023-05-10T00:28:36;3.17;;;1.80;;
57856;SDS011;43683;48.650;9.290;2023-05-10T00:31:02;1.98;;;1.75;;
57856;SDS011;43683;48.650;9.290;2023-05-10T00:33:27;1.58;;;1.48;;
57856;SDS011;43683;48.650;9.290;2023-05-10T00:35:53;2.88;;;1.50;;
57856;SDS011;43683;48.650;9.290;2023-05-10T00:38:18;4.03;;;1.60;;
57856;SDS011;43683;48.650;9.290;2023-05-10T00:40:44;2.67;;;1.20;;
57856;SDS011;43683;48.650;9.290;2023-05-10T00:43:09;1.85;;;1.40;;
57856;SDS011;43683;48.650;9.290;2023-05-10T00:45:35;0.90;;;0.90;;
57856;SDS011;43683;48.650;9.290;2023-05-10T00:48:02;3.13;;;1.10;;
57856;SDS011;43683;48.650;9.290;2023-05-10T00:50:28;0.65;;;0.65;;
57856;SDS011;43683;48.650;9.290;2023-05-10T00:52:55;0.60;;;0.60;;
57856;SDS011;43683;48.650;9.290;2023-05-10T00:55:20;0.65;;;0.65;;
57856;SDS011;43683;48.650;9.290;2023-05-10T00:57:46;0.55;;;0.55;;
57856;SDS011;43683;48.650;9.290;2023-05-10T01:00:12;0.60;;;0.60;;
57856;SDS011;43683;48.650;9.290;2023-05-10T01:02:42;0.65;;;0.50;;
57856;SDS011;43683;48.650;9.290;2023-05-10T01:05:11;1.83;;;0.75;;
57856;SDS011;43683;48.650;9.290;2023-05-10T01:07:37;0.50;;;0.50;;
57856;SDS011;43683;48.650;9.290;2023-05-10T01:10:04;0.45;;;0.45;;
57856;SDS011;43683;48.650;9.290;2023-05-10T01:12:34;0.50;;;0.50;;
57856;SDS011;43683;48.650;9.290;2023-05-10T01:15:02;0.60;;;0.60;;
57856;SDS011;43683;48.650;9.290;2023-05-10T01:17:29;0.53;;;0.53;;
57856;SDS011;43683;48.650;9.290;2023-05-10T01:19:55;0.95;;;0.50;;
57856;SDS011;43683;48.650;9.290;2023-05-10T01:28:35;0.60;;;0.60;;
57856;SDS011;43683;48.650;9.290;2023-05-10T01:33:46;4.32;;;0.90;;
57856;SDS011;43683;48.650;9.290;2023-05-10T01:36:28;2.13;;;1.47;;
57856;SDS011;43683;48.650;9.290;2023-05-10T01:39:11;0.50;;;0.50;;
57856;SDS011;43683;48.650;9.290;2023-05-10T01:41:57;0.60;;;0.60;;
57856;SDS011;43683;48.650;9.290;2023-05-10T01:44:45;0.60;;;0.60;;
57856;SDS011;43683;48.650;9.290;2023-05-10T01:47:54;0.50;;;0.50;;
57856;SDS011;43683;48.650;9.290;2023-05-10T01:50:19;0.65;;;0.65;;
57856;SDS011;43683;48.650;9.290;2023-05-10T01:52:51;2.38;;;0.90;;
57856;SDS011;43683;48.650;9.290;2023-05-10T01:55:20;0.60;;;0.60;;
57856;SDS011;43683;48.650;9.290;2023-05-10T01:57:48;0.70;;;0.70;;
57856;SDS011;43683;48.650;9.290;2023-05-10T02:00:21;1.35;;;0.70;;
57856;SDS011;43683;48.650;9.290;2023-05-10T02:02:48;1.02;;;0.90;;
57856;SDS011;43683;48.650;9.290;2023-05-10T02:05:16;0.93;;;0.90;;
57856;SDS011;43683;48.650;9.290;2023-05-10T02:07:42;1.38;;;0.63;;
57856;SDS011;43683;48.650;9.290;2023-05-10T02:10:09;0.60;;;0.60;;
57856;SDS011;43683;48.650;9.290;2023-05-10T02:12:36;0.60;;;0.60;;
57856;SDS011;43683;48.650;9.290;2023-05-10T02:15:06;1.00;;;0.95;;
57856;SDS011;43683;48.650;9.290;2023-05-10T02:17:32;0.80;;;0.80;;
57856;SDS011;43683;48.650;9.290;2023-05-10T02:19:59;0.95;;;0.70;;
57856;SDS011;43683;48.650;9.290;2023-05-10T02:22:26;7.03;;;1.00;;
57856;SDS011;43683;48.650;9.290;2023-05-10T02:24:53;0.70;;;0.70;;
57856;SDS011;43683;48.650;9.290;2023-05-10T02:27:20;0.75;;;0.75;;
57856;SDS011;43683;48.650;9.290;2023-05-10T02:29:49;0.70;;;0.70;;
57856;SDS011;43683;48.650;9.290;2023-05-10T02:32:16;0.70;;;0.70;;
57856;SDS011;43683;48.650;9.290;2023-05-10T02:34:42;0.60;;;0.60;;
57856;SDS011;43683;48.650;9.290;2023-05-10T02:39:38;0.75;;;0.75;;
57856;SDS011;43683;48.650;9.290;2023-05-10T02:42:08;1.58;;;0.75;;
57856;SDS011;43683;48.650;9.290;2023-05-10T02:44:40;0.70;;;0.68;;
57856;SDS011;43683;48.650;9.290;2023-05-10T02:47:06;0.60;;;0.60;;
57856;SDS011;43683;48.650;9.290;2023-05-10T02:49:32;1.55;;;0.75;;
57856;SDS011;43683;48.650;9.290;2023-05-10T02:52:00;0.70;;;0.70;;
57856;SDS011;43683;48.650;9.290;2023-05-10T02:54:30;5.97;;;0.90;;
57856;SDS011;43683;48.650;9.290;2023-05-10T02:56:58;0.85;;;0.80;;
57856;SDS011;43683;48.650;9.290;2023-05-10T02:59:28;0.82;;;0.82;;
57856;SDS011;43683;48.650;9.290;2023-05-10T03:01:54;1.98;;;0.75;;
57856;SDS011;43683;48.650;9.290;2023-05-10T03:04:19;1.48;;;0.90;;
57856;SDS011;43683;48.650;9.290;2023-05-10T03:06:45;0.82;;;0.80;;
57856;SDS011;43683;48.650;9.290;2023-05-10T03:09:11;0.77;;;0.77;;
57856;SDS011;43683;48.650;9.290;2023-05-10T03:11:47;1.27;;;0.98;;
57856;SDS011;43683;48.650;9.290;2023-05-10T03:19:54;0.82;;;0.70;;
57856;SDS011;43683;48.650;9.290;2023-05-10T03:22:26;0.90;;;0.90;;
57856;SDS011;43683;48.650;9.290;2023-05-10T03:25:04;1.08;;;0.93;;
57856;SDS011;43683;48.650;9.290;2023-05-10T03:27:31;0.85;;;0.82;;
57856;SDS011;43683;48.650;9.290;2023-05-10T03:29:58;1.30;;;1.00;;
57856;SDS011;43683;48.650;9.290;2023-05-10T03:34:53;0.80;;;0.80;;
57856;SDS011;43683;48.650;9.290;2023-05-10T03:37:19;0.90;;;0.90;;
57856;SDS011;43683;48.650;9.290;2023-05-10T03:39:44;0.88;;;0.88;;
57856;SDS011;43683;48.650;9.290;2023-05-10T03:42:10;0.95;;;0.80;;
57856;SDS011;43683;48.650;9.290;2023-05-10T03:44:36;0.80;;;0.80;;
57856;SDS011;43683;48.650;9.290;2023-05-10T03:47:03;2.13;;;1.27;;
57856;SDS011;43683;48.650;9.290;2023-05-10T03:49:29;2.67;;;0.90;;
57856;SDS011;43683;48.650;9.290;2023-05-10T03:51:54;0.90;;;0.90;;
57856;SDS011;43683;48.650;9.290;2023-05-10T03:54:20;0.80;;;0.80;;
57856;SDS011;43683;48.650;9.290;2023-05-10T03:56:45;1.42;;;0.90;;
57856;SDS011;43683;48.650;9.290;2023-05-10T03:59:12;1.33;;;1.02;;
57856;SDS011;43683;48.650;9.290;2023-05-10T04:01:38;0.80;;;0.80;;
57856;SDS011;43683;48.650;9.290;2023-05-10T04:04:04;2.67;;;0.90;;
57856;SDS011;43683;48.650;9.290;2023-05-10T04:06:29;0.88;;;0.88;;
57856;SDS011;43683;48.650;9.290;2023-05-10T04:08:55;0.95;;;0.90;;
57856;SDS011;43683;48.650;9.290;2023-05-10T04:11:24;1.15;;;1.05;;
57856;SDS011;43683;48.650;9.290;2023-05-10T04:13:50;0.98;;;0.88;;
57856;SDS011;43683;48.650;9.290;2023-05-10T04:16:16;2.25;;;0.80;;
57856;SDS011;43683;48.650;9.290;2023-05-10T04:18:41;1.08;;;0.90;;
57856;SDS011;43683;48.650;9.290;2023-05-10T04:21:13;1.58;;;1.05;;
57856;SDS011;43683;48.650;9.290;2023-05-10T04:23:39;1.48;;;1.13;;
57856;SDS011;43683;48.650;9.290;2023-05-10T04:26:05;0.80;;;0.80;;
57856;SDS011;43683;48.650;9.290;2023-05-10T04:28:30;1.02;;;0.93;;
57856;SDS011;43683;48.650;9.290;2023-05-10T04:31:02;3.25;;;1.10;;
57856;SDS011;43683;48.650;9.290;2023-05-10T04:33:28;1.30;;;1.15;;
57856;SDS011;43683;48.650;9.290;2023-05-10T04:35:54;1.30;;;0.77;;
57856;SDS011;43683;48.650;9.290;2023-05-10T04:38:19;1.52;;;0.90;;
57856;SDS011;43683;48.650;9.290;2023-05-10T04:40:45;1.40;;;0.98;;
57856;SDS011;43683;48.650;9.290;2023-05-10T04:43:11;1.10;;;1.00;;
57856;SDS011;43683;48.650;9.290;2023-05-10T04:45:36;1.23;;;1.00;;
57856;SDS011;43683;48.650;9.290;2023-05-10T04:48:01;1.40;;;1.30;;
57856;SDS011;43683;48.650;9.290;2023-05-10T04:50:27;1.48;;;1.08;;
57856;SDS011;43683;48.650;9.290;2023-05-10T04:52:53;1.45;;;1.20;;
57856;SDS011;43683;48.650;9.290;2023-05-10T04:55:18;1.45;;;1.13;;
57856;SDS011;43683;48.650;9.290;2023-05-10T04:57:44;1.92;;;1.30;;
57856;SDS011;43683;48.650;9.290;2023-05-10T05:00:10;1.58;;;1.17;;
57856;SDS011;43683;48.650;9.290;2023-05-10T05:02:35;1.88;;;1.15;;
57856;SDS011;43683;48.650;9.290;2023-05-10T05:05:01;1.13;;;1.02;;
57856;SDS011;43683;48.650;9.290;2023-05-10T05:07:26;2.92;;;1.30;;
57856;SDS011;43683;48.650;9.290;2023-05-10T05:09:52;1.30;;;1.20;;
57856;SDS011;43683;48.650;9.290;2023-05-10T05:12:17;1.30;;;1.20;;
57856;SDS011;43683;48.650;9.290;2023-05-10T05:14:43;2.08;;;1.10;;
57856;SDS011;43683;48.650;9.290;2023-05-10T05:17:08;1.08;;;1.02;;
57856;SDS011;43683;48.650;9.290;2023-05-10T05:19:34;2.95;;;1.30;;
57856;SDS011;43683;48.650;9.290;2023-05-10T05:22:00;3.30;;;1.52;;
57856;SDS011;43683;48.650;9.290;2023-05-10T05:24:26;1.95;;;1.30;;
57856;SDS011;43683;48.650;9.290;2023-05-10T05:26:51;3.20;;;1.30;;
57856;SDS011;43683;48.650;9.290;2023-05-10T05:29:17;1.40;;;1.30;;
57856;SDS011;43683;48.650;9.290;2023-05-10T05:31:42;1.52;;;1.00;;
57856;SDS011;43683;48.650;9.290;2023-05-10T05:34:08;2.05;;;1.27;;
57856;SDS011;43683;48.650;9.290;2023-05-10T05:36:36;2.78;;;1.30;;
57856;SDS011;43683;48.650;9.290;2023-05-10T05:39:05;1.70;;;1.20;;
57856;SDS011;43683;48.650;9.290;2023-05-10T05:41:30;2.28;;;1.27;;
57856;SDS011;43683;48.650;9.290;2023-05-10T05:43:56;1.75;;;1.40;;
57856;SDS011;43683;48.650;9.290;2023-05-10T05:46:21;1.52;;;1.25;;
57856;SDS011;43683;48.650;9.290;2023-05-10T05:48:47;2.70;;;1.30;;
57856;SDS011;43683;48.650;9.290;2023-05-10T05:51:12;1.27;;;1.02;;
57856;SDS011;43683;48.650;9.290;2023-05-10T05:53:38;2.53;;;1.10;;
57856;SDS011;43683;48.650;9.290;2023-05-10T05:56:04;2.13;;;1.13;;
57856;SDS011;43683;48.650;9.290;2023-05-10T05:58:29;2.53;;;1.45;;
57856;SDS011;43683;48.650;9.290;2023-05-10T06:00:55;2.00;;;1.20;;
57856;SDS011;43683;48.650;9.290;2023-05-10T06:03:20;3.10;;;1.20;;
57856;SDS011;43683;48.650;9.290;2023-05-10T06:05:46;2.17;;;1.40;;
57856;SDS011;43683;48.650;9.290;2023-05-10T06:08:11;1.23;;;1.05;;
57856;SDS011;43683;48.650;9.290;2023-05-10T06:10:37;1.13;;;1.02;;
57856;SDS011;43683;48.650;9.290;2023-05-10T06:13:03;1.80;;;0.95;;
57856;SDS011;43683;48.650;9.290;2023-05-10T06:15:28;1.58;;;0.98;;
57856;SDS011;43683;48.650;9.290;2023-05-10T06:17:55;1.15;;;1.10;;
57856;SDS011;43683;48.650;9.290;2023-05-10T06:20:20;1.10;;;1.00;;
57856;SDS011;43683;48.650;9.290;2023-05-10T06:22:46;2.28;;;1.38;;
57856;SDS011;43683;48.650;9.290;2023-05-10T06:25:11;1.48;;;1.30;;
57856;SDS011;43683;48.650;9.290;2023-05-10T06:27:37;2.47;;;1.52;;
57856;SDS011;43683;48.650;9.290;2023-05-10T06:30:02;1.63;;;1.45;;
57856;SDS011;43683;48.650;9.290;2023-05-10T06:32:29;1.67;;;1.50;;
57856;SDS011;43683;48.650;9.290;2023-05-10T06:34:55;1.50;;;1.20;;
57856;SDS011;43683;48.650;9.290;2023-05-10T06:37:20;1.33;;;1.20;;
57856;SDS011;43683;48.650;9.290;2023-05-10T06:39:46;1.10;;;0.90;;
57856;SDS011;43683;48.650;9.290;2023-05-10T06:42:11;2.28;;;1.35;;
57856;SDS011;43683;48.650;9.290;2023-05-10T06:44:37;1.20;;;1.00;;
57856;SDS011;43683;48.650;9.290;2023-05-10T06:47:02;2.42;;;1.23;;
57856;SDS011;43683;48.650;9.290;2023-05-10T06:49:28;1.20;;;1.10;;
57856;SDS011;43683;48.650;9.290;2023-05-10T06:51:55;1.30;;;1.08;;
57856;SDS011;43683;48.650;9.290;2023-05-10T06:54:21;1.20;;;1.10;;
57856;SDS011;43683;48.650;9.290;2023-05-10T06:56:46;1.30;;;1.20;;
57856;SDS011;43683;48.650;9.290;2023-05-10T06:59:12;1.65;;;1.02;;
57856;SDS011;43683;48.650;9.290;2023-05-10T07:01:38;1.15;;;1.00;;
57856;SDS011;43683;48.650;9.290;2023-05-10T07:04:04;1.50;;;1.30;;
57856;SDS011;43683;48.650;9.290;2023-05-10T07:06:29;1.38;;;1.10;;
57856;SDS011;43683;48.650;9.290;2023-05-10T07:08:55;2.58;;;1.20;;
57856;SDS011;43683;48.650;9.290;2023-05-10T07:11:20;1.98;;;1.20;;
57856;SDS011;43683;48.650;9.290;2023-05-10T07:13:46;1.92;;;1.20;;
57856;SDS011;43683;48.650;9.290;2023-05-10T07:16:11;1.30;;;1.17;;
57856;SDS011;43683;48.650;9.290;2023-05-10T07:18:37;1.55;;;1.13;;
57856;SDS011;43683;48.650;9.290;2023-05-10T07:21:02;2.15;;;1.17;;
57856;SDS011;43683;48.650;9.290;2023-05-10T07:23:28;1.60;;;1.30;;
57856;SDS011;43683;48.650;9.290;2023-05-10T07:25:54;1.15;;;1.00;;
57856;SDS011;43683;48.650;9.290;2023-05-10T07:28:22;2.05;;;1.20;;
57856;SDS011;43683;48.650;9.290;2023-05-10T07:30:47;1.20;;;0.90;;
57856;SDS011;43683;48.650;9.290;2023-05-10T07:33:13;2.25;;;0.93;;
57856;SDS011;43683;48.650;9.290;2023-05-10T07:35:39;3.75;;;1.52;;
57856;SDS011;43683;48.650;9.290;2023-05-10T07:38:05;2.60;;;1.25;;
57856;SDS011;43683;48.650;9.290;2023-05-10T07:40:31;0.80;;;0.80;;
57856;SDS011;43683;48.650;9.290;2023-05-10T07:42:56;2.00;;;1.15;;
57856;SDS011;43683;48.650;9.290;2023-05-10T07:45:22;1.17;;;0.88;;
57856;SDS011;43683;48.650;9.290;2023-05-10T07:47:48;2.22;;;0.93;;
57856;SDS011;43683;48.650;9.290;2023-05-10T07:50:14;1.42;;;1.20;;
57856;SDS011;43683;48.650;9.290;2023-05-10T07:52:40;1.48;;;1.13;;
57856;SDS011;43683;48.650;9.290;2023-05-10T07:55:06;1.17;;;0.90;;
57856;SDS011;43683;48.650;9.290;2023-05-10T07:57:33;1.88;;;1.10;;
57856;SDS011;43683;48.650;9.290;2023-05-10T07:59:59;3.20;;;1.02;;
57856;SDS011;43683;48.650;9.290;2023-05-10T08:02:24;1.42;;;1.02;;
57856;SDS011;43683;48.650;9.290;2023-05-10T08:04:50;0.93;;;0.80;;
57856;SDS011;43683;48.650;9.290;2023-05-10T08:07:16;1.15;;;1.05;;
57856;SDS011;43683;48.650;9.290;2023-05-10T08:09:42;2.20;;;0.80;;
57856;SDS011;43683;48.650;9.290;2023-05-10T08:12:07;0.90;;;0.90;;
57856;SDS011;43683;48.650;9.290;2023-05-10T08:14:33;0.80;;;0.80;;
57856;SDS011;43683;48.650;9.290;2023-05-10T08:16:58;1.65;;;0.90;;
57856;SDS011;43683;48.650;9.290;2023-05-10T08:19:24;1.10;;;1.00;;
57856;SDS011;43683;48.650;9.290;2023-05-10T08:21:49;1.23;;;0.90;;
57856;SDS011;43683;48.650;9.290;2023-05-10T08:24:15;0.85;;;0.82;;
57856;SDS011;43683;48.650;9.290;2023-05-10T08:26:40;1.83;;;0.77;;
57856;SDS011;43683;48.650;9.290;2023-05-10T08:29:06;1.02;;;0.93;;
57856;SDS011;43683;48.650;9.290;2023-05-10T08:31:31;0.93;;;0.75;;
57856;SDS011;43683;48.650;9.290;2023-05-10T08:33:57;1.25;;;0.70;;
57856;SDS011;43683;48.650;9.290;2023-05-10T08:36:22;0.80;;;0.80;;
57856;SDS011;43683;48.650;9.290;2023-05-10T08:38:52;0.70;;;0.70;;
57856;SDS011;43683;48.650;9.290;2023-05-10T08:41:21;1.58;;;0.88;;
57856;SDS011;43683;48.650;9.290;2023-05-10T08:43:49;1.10;;;1.00;;
57856;SDS011;43683;48.650;9.290;2023-05-10T08:46:16;1.40;;;0.90;;
57856;SDS011;43683;48.650;9.290;2023-05-10T08:48:46;0.60;;;0.60;;
57856;SDS011;43683;48.650;9.290;2023-05-10T08:51:14;0.60;;;0.60;;
57856;SDS011;43683;48.650;9.290;2023-05-10T08:53:44;0.70;;;0.70;;
57856;SDS011;43683;48.650;9.290;2023-05-10T08:56:10;0.70;;;0.70;;
57856;SDS011;43683;48.650;9.290;2023-05-10T08:58:36;1.17;;;0.80;;
57856;SDS011;43683;48.650;9.290;2023-05-10T09:01:03;0.80;;;0.80;;
57856;SDS011;43683;48.650;9.290;2023-05-10T09:03:30;1.02;;;0.70;;
57856;SDS011;43683;48.650;9.290;2023-05-10T09:05:56;0.73;;;0.73;;
57856;SDS011;43683;48.650;9.290;2023-05-10T09:08:25;5.22;;;0.80;;
57856;SDS011;43683;48.650;9.290;2023-05-10T09:10:51;3.47;;;0.70;;
57856;SDS011;43683;48.650;9.290;2023-05-10T09:13:17;0.55;;;0.50;;
57856;SDS011;43683;48.650;9.290;2023-05-10T09:15:44;1.38;;;0.88;;
57856;SDS011;43683;48.650;9.290;2023-05-10T09:18:10;2.05;;;0.70;;
57856;SDS011;43683;48.650;9.290;2023-05-10T09:20:36;1.40;;;0.73;;
57856;SDS011;43683;48.650;9.290;2023-05-10T09:23:01;1.52;;;0.82;;
57856;SDS011;43683;48.650;9.290;2023-05-10T09:25:27;0.73;;;0.70;;
57856;SDS011;43683;48.650;9.290;2023-05-10T09:27:53;1.38;;;0.63;;
57856;SDS011;43683;48.650;9.290;2023-05-10T09:32:51;1.00;;;0.60;;
57856;SDS011;43683;48.650;9.290;2023-05-10T09:35:18;0.50;;;0.50;;
57856;SDS011;43683;48.650;9.290;2023-05-10T09:37:45;0.57;;;0.40;;
57856;SDS011;43683;48.650;9.290;2023-05-10T09:40:16;0.50;;;0.50;;
57856;SDS011;43683;48.650;9.290;2023-05-10T09:42:53;0.45;;;0.40;;
57856;SDS011;43683;48.650;9.290;2023-05-10T09:45:19;0.55;;;0.47;;
57856;SDS011;43683;48.650;9.290;2023-05-10T09:47:45;1.25;;;0.50;;
57856;SDS011;43683;48.650;9.290;2023-05-10T09:50:11;0.40;;;0.40;;
57856;SDS011;43683;48.650;9.290;2023-05-10T09:55:44;0.63;;;0.57;;
57856;SDS011;43683;48.650;9.290;2023-05-10T09:58:11;0.60;;;0.60;;
57856;SDS011;43683;48.650;9.290;2023-05-10T10:00:39;0.43;;;0.43;;
57856;SDS011;43683;48.650;9.290;2023-05-10T10:05:36;0.65;;;0.40;;
57856;SDS011;43683;48.650;9.290;2023-05-10T10:08:06;0.85;;;0.60;;
57856;SDS011;43683;48.650;9.290;2023-05-10T10:10:32;1.30;;;0.40;;
57856;SDS011;43683;48.650;9.290;2023-05-10T10:12:58;0.50;;;0.50;;
57856;SDS011;43683;48.650;9.290;2023-05-10T10:15:24;1.90;;;0.95;;
57856;SDS011;43683;48.650;9.290;2023-05-10T10:17:50;1.90;;;0.60;;
57856;SDS011;43683;48.650;9.290;2023-05-10T10:20:17;0.70;;;0.52;;
57856;SDS011;43683;48.650;9.290;2023-05-10T10:22:43;0.60;;;0.60;;
57856;SDS011;43683;48.650;9.290;2023-05-10T10:25:13;0.50;;;0.50;;
57856;SDS011;43683;48.650;9.290;2023-05-10T10:35:45;2.45;;;1.10;;
57856;SDS011;43683;48.650;9.290;2023-05-10T10:38:12;0.60;;;0.60;;
57856;SDS011;43683;48.650;9.290;2023-05-10T10:40:38;0.50;;;0.50;;
57856;SDS011;43683;48.650;9.290;2023-05-10T10:48:40;1.55;;;0.50;;
57856;SDS011;43683;48.650;9.290;2023-05-10T10:51:11;0.40;;;0.40;;
57856;SDS011;43683;48.650;9.290;2023-05-10T10:53:39;0.37;;;0.37;;
57856;SDS011;43683;48.650;9.290;2023-05-10T10:58:35;0.60;;;0.52;;
57856;SDS011;43683;48.650;9.290;2023-05-10T11:03:35;0.70;;;0.40;;
57856;SDS011;43683;48.650;9.290;2023-05-10T11:06:01;0.55;;;0.55;;
57856;SDS011;43683;48.650;9.290;2023-05-10T11:08:28;0.60;;;0.47;;
57856;SDS011;43683;48.650;9.290;2023-05-10T11:13:38;1.98;;;1.00;;
57856;SDS011;43683;48.650;9.290;2023-05-10T11:16:24;0.75;;;0.60;;
57856;SDS011;43683;48.650;9.290;2023-05-10T11:18:53;0.55;;;0.55;;
57856;SDS011;43683;48.650;9.290;2023-05-10T11:21:24;1.00;;;0.60;;
57856;SDS011;43683;48.650;9.290;2023-05-10T11:23:50;1.35;;;0.68;;
57856;SDS011;43683;48.650;9.290;2023-05-10T11:26:20;1.88;;;0.60;;
57856;SDS011;43683;48.650;9.290;2023-05-10T11:28:51;0.47;;;0.47;;
57856;SDS011;43683;48.650;9.290;2023-05-10T11:31:20;0.60;;;0.50;;
57856;SDS011;43683;48.650;9.290;2023-05-10T11:33:47;3.03;;;0.80;;
57856;SDS011;43683;48.650;9.290;2023-05-10T11:38:44;1.20;;;0.60;;
57856;SDS011;43683;48.650;9.290;2023-05-10T11:41:10;0.73;;;0.70;;
57856;SDS011;43683;48.650;9.290;2023-05-10T11:43:37;1.63;;;1.05;;
57856;SDS011;43683;48.650;9.290;2023-05-10T11:46:05;2.65;;;1.08;;
57856;SDS011;43683;48.650;9.290;2023-05-10T11:48:32;2.45;;;1.05;;
57856;SDS011;43683;48.650;9.290;2023-05-10T11:50:58;1.20;;;1.10;;
57856;SDS011;43683;48.650;9.290;2023-05-10T11:53:26;1.15;;;0.90;;
57856;SDS011;43683;48.650;9.290;2023-05-10T11:55:52;1.15;;;1.05;;
57856;SDS011;43683;48.650;9.290;2023-05-10T11:58:18;1.67;;;0.88;;
57856;SDS011;43683;48.650;9.290;2023-05-10T12:00:44;1.13;;;0.90;;
57856;SDS011;43683;48.650;9.290;2023-05-10T12:03:10;1.00;;;0.90;;
57856;SDS011;43683;48.650;9.290;2023-05-10T12:05:36;2.15;;;0.90;;
57856;SDS011;43683;48.650;9.290;2023-05-10T12:08:14;4.18;;;1.23;;
57856;SDS011;43683;48.650;9.290;2023-05-10T12:10:41;1.00;;;0.88;;
57856;SDS011;43683;48.650;9.290;2023-05-10T12:13:13;1.70;;;1.50;;
57856;SDS011;43683;48.650;9.290;2023-05-10T12:15:39;4.30;;;1.30;;
57856;SDS011;43683;48.650;9.290;2023-05-10T12:18:05;1.30;;;1.08;;
57856;SDS011;43683;48.650;9.290;2023-05-10T12:20:30;3.20;;;1.42;;
57856;SDS011;43683;48.650;9.290;2023-05-10T12:22:57;1.85;;;1.10;;
57856;SDS011;43683;48.650;9.290;2023-05-10T12:25:24;1.85;;;1.00;;
57856;SDS011;43683;48.650;9.290;2023-05-10T12:27:55;0.80;;;0.80;;
57856;SDS011;43683;48.650;9.290;2023-05-10T12:30:25;0.90;;;0.90;;
57856;SDS011;43683;48.650;9.290;2023-05-10T12:32:52;1.67;;;1.08;;
57856;SDS011;43683;48.650;9.290;2023-05-10T12:35:19;1.38;;;0.90;;
57856;SDS011;43683;48.650;9.290;2023-05-10T12:37:49;1.38;;;0.80;;
57856;SDS011;43683;48.650;9.290;2023-05-10T12:40:16;2.38;;;0.90;;
57856;SDS011;43683;48.650;9.290;2023-05-10T12:42:41;1.60;;;0.90;;
57856;SDS011;43683;48.650;9.290;2023-05-10T12:45:07;1.35;;;1.00;;
57856;SDS011;43683;48.650;9.290;2023-05-10T12:47:33;1.67;;;0.80;;
57856;SDS011;43683;48.650;9.290;2023-05-10T12:49:59;0.88;;;0.80;;
57856;SDS011;43683;48.650;9.290;2023-05-10T12:52:27;0.80;;;0.80;;
57856;SDS011;43683;48.650;9.290;2023-05-10T12:54:53;0.93;;;0.90;;
57856;SDS011;43683;48.650;9.290;2023-05-10T12:57:19;1.20;;;0.95;;
57856;SDS011;43683;48.650;9.290;2023-05-10T12:59:45;2.05;;;0.95;;
57856;SDS011;43683;48.650;9.290;2023-05-10T13:02:11;0.80;;;0.80;;
57856;SDS011;43683;48.650;9.290;2023-05-10T13:04:36;1.02;;;0.90;;
57856;SDS011;43683;48.650;9.290;2023-05-10T13:07:05;1.65;;;0.80;;
57856;SDS011;43683;48.650;9.290;2023-05-10T13:09:31;0.93;;;0.80;;
57856;SDS011;43683;48.650;9.290;2023-05-10T13:11:57;1.70;;;0.98;;
57856;SDS011;43683;48.650;9.290;2023-05-10T13:14:22;1.13;;;0.77;;
57856;SDS011;43683;48.650;9.290;2023-05-10T13:16:48;2.95;;;1.30;;
57856;SDS011;43683;48.650;9.290;2023-05-10T13:19:13;0.65;;;0.65;;
57856;SDS011;43683;48.650;9.290;2023-05-10T13:21:40;1.40;;;0.90;;
57856;SDS011;43683;48.650;9.290;2023-05-10T13:24:06;1.05;;;0.93;;
57856;SDS011;43683;48.650;9.290;2023-05-10T13:26:32;1.20;;;0.82;;
57856;SDS011;43683;48.650;9.290;2023-05-10T13:28:58;1.05;;;0.80;;
57856;SDS011;43683;48.650;9.290;2023-05-10T13:31:23;3.03;;;1.00;;
57856;SDS011;43683;48.650;9.290;2023-05-10T13:33:49;2.30;;;0.93;;
57856;SDS011;43683;48.650;9.290;2023-05-10T13:36:14;0.88;;;0.68;;
57856;SDS011;43683;48.650;9.290;2023-05-10T13:38:40;1.38;;;0.60;;
57856;SDS011;43683;48.650;9.290;2023-05-10T13:41:05;1.45;;;1.00;;
57856;SDS011;43683;48.650;9.290;2023-05-10T13:43:31;2.13;;;0.80;;
57856;SDS011;43683;48.650;9.290;2023-05-10T13:45:56;0.85;;;0.60;;
57856;SDS011;43683;48.650;9.290;2023-05-10T13:48:22;0.85;;;0.65;;
57856;SDS011;43683;48.650;9.290;2023-05-10T13:50:47;2.15;;;0.75;;
57856;SDS011;43683;48.650;9.290;2023-05-10T13:53:13;1.73;;;0.88;;
57856;SDS011;43683;48.650;9.290;2023-05-10T13:55:39;1.95;;;0.90;;
57856;SDS011;43683;48.650;9.290;2023-05-10T13:58:05;4.05;;;0.90;;
57856;SDS011;43683;48.650;9.290;2023-05-10T14:00:30;2.72;;;1.15;;
57856;SDS011;43683;48.650;9.290;2023-05-10T14:02:56;1.52;;;0.75;;
57856;SDS011;43683;48.650;9.290;2023-05-10T14:05:21;0.60;;;0.60;;
57856;SDS011;43683;48.650;9.290;2023-05-10T14:07:48;4.17;;;0.90;;
57856;SDS011;43683;48.650;9.290;2023-05-10T14:10:15;0.93;;;0.80;;
57856;SDS011;43683;48.650;9.290;2023-05-10T14:12:40;1.58;;;0.77;;
57856;SDS011;43683;48.650;9.290;2023-05-10T14:15:06;1.00;;;0.90;;
57856;SDS011;43683;48.650;9.290;2023-05-10T14:17:32;1.48;;;0.80;;
57856;SDS011;43683;48.650;9.290;2023-05-10T14:19:57;0.75;;;0.75;;
57856;SDS011;43683;48.650;9.290;2023-05-10T14:22:23;1.65;;;0.90;;
57856;SDS011;43683;48.650;9.290;2023-05-10T14:24:49;0.77;;;0.75;;
57856;SDS011;43683;48.650;9.290;2023-05-10T14:27:15;1.67;;;0.60;;
57856;SDS011;43683;48.650;9.290;2023-05-10T14:29:41;1.08;;;0.70;;
57856;SDS011;43683;48.650;9.290;2023-05-10T14:32:06;0.85;;;0.80;;
57856;SDS011;43683;48.650;9.290;2023-05-10T14:34:32;1.65;;;0.80;;
57856;SDS011;43683;48.650;9.290;2023-05-10T14:36:58;1.75;;;0.90;;
57856;SDS011;43683;48.650;9.290;2023-05-10T14:39:23;2.22;;;0.93;;
57856;SDS011;43683;48.650;9.290;2023-05-10T14:41:49;0.60;;;0.60;;
57856;SDS011;43683;48.650;9.290;2023-05-10T14:44:18;1.45;;;0.60;;
57856;SDS011;43683;48.650;9.290;2023-05-10T14:46:43;0.82;;;0.80;;
57856;SDS011;43683;48.650;9.290;2023-05-10T14:49:09;2.65;;;0.70;;
57856;SDS011;43683;48.650;9.290;2023-05-10T14:51:34;0.95;;;0.80;;
57856;SDS011;43683;48.650;9.290;2023-05-10T14:54:01;2.95;;;0.80;;
57856;SDS011;43683;48.650;9.290;2023-05-10T14:56:27;1.70;;;0.70;;
57856;SDS011;43683;48.650;9.290;2023-05-10T14:58:53;1.25;;;0.73;;
57856;SDS011;43683;48.650;9.290;2023-05-10T15:01:18;0.90;;;0.90;;
57856;SDS011;43683;48.650;9.290;2023-05-10T15:03:44;2.08;;;0.70;;
57856;SDS011;43683;48.650;9.290;2023-05-10T15:06:09;0.98;;;0.80;;
57856;SDS011;43683;48.650;9.290;2023-05-10T15:08:35;1.08;;;0.75;;
57856;SDS011;43683;48.650;9.290;2023-05-10T15:11:01;0.80;;;0.80;;
57856;SDS011;43683;48.650;9.290;2023-05-10T15:13:26;1.38;;;0.70;;
57856;SDS011;43683;48.650;9.290;2023-05-10T15:15:52;0.95;;;0.90;;
57856;SDS011;43683;48.650;9.290;2023-05-10T15:18:17;1.27;;;0.90;;
57856;SDS011;43683;48.650;9.290;2023-05-10T15:20:43;1.08;;;0.85;;
57856;SDS011;43683;48.650;9.290;2023-05-10T15:23:08;3.13;;;1.02;;
57856;SDS011;43683;48.650;9.290;2023-05-10T15:25:34;1.58;;;0.60;;
57856;SDS011;43683;48.650;9.290;2023-05-10T15:28:02;1.70;;;0.65;;
57856;SDS011;43683;48.650;9.290;2023-05-10T15:30:27;1.40;;;0.70;;
57856;SDS011;43683;48.650;9.290;2023-05-10T15:32:53;0.60;;;0.60;;
57856;SDS011;43683;48.650;9.290;2023-05-10T15:35:19;0.82;;;0.60;;
57856;SDS011;43683;48.650;9.290;2023-05-10T15:37:46;0.82;;;0.75;;